sensor_id;sensor_type;location;lat;lon;timestamp;temperature;humidity
6210;DHT22;3138;52.550;13.148;2022-12-07T00:01:52;2.30;99.90
6210;DHT22;3138;52.550;13.148;2022-12-07T00:04:19;2.40;99.90
6210;DHT22;3138;52.550;13.148;2022-12-07T00:06:52;2.30;99.90
6210;DHT22;3138;52.550;13.148;2022-12-07T00:09:19;2.30;99.90
6210;DHT22;3138;52.550;13.148;2022-12-07T00:11:50;2.30;99.90
6210;DHT22;3138;52.550;13.148;2022-12-07T00:14:18;2.20;99.90
6210;DHT22;3138;52.550;13.148;2022-12-07T00:16:45;2.20;99.90
6210;DHT22;3138;52.550;13.148;2022-12-07T00:19:13;2.10;99.90
6210;DHT22;3138;52.550;13.148;2022-12-07T00:21:40;2.00;99.90
6210;DHT22;3138;52.550;13.148;2022-12-07T00:24:07;2.00;99.90
6210;DHT22;3138;52.550;13.148;2022-12-07T00:26:36;1.90;99.90
6210;DHT22;3138;52.550;13.148;2022-12-07T00:29:06;1.80;99.90
6210;DHT22;3138;52.550;13.148;2022-12-07T00:31:35;1.80;99.90
6210;DHT22;3138;52.550;13.148;2022-12-07T00:34:04;1.70;99.90
6210;DHT22;3138;52.550;13.148;2022-12-07T00:36:31;1.60;99.90
6210;DHT22;3138;52.550;13.148;2022-12-07T00:38:59;1.70;99.90
6210;DHT22;3138;52.550;13.148;2022-12-07T00:41:27;1.70;99.90
6210;DHT22;3138;52.550;13.148;2022-12-07T00:43:54;1.60;99.90
6210;DHT22;3138;52.550;13.148;2022-12-07T00:46:23;1.70;99.90
6210;DHT22;3138;52.550;13.148;2022-12-07T00:48:51;1.70;99.90
6210;DHT22;3138;52.550;13.148;2022-12-07T00:51:21;1.70;99.90
6210;DHT22;3138;52.550;13.148;2022-12-07T00:53:48;1.70;99.90
6210;DHT22;3138;52.550;13.148;2022-12-07T00:56:17;1.70;99.90
6210;DHT22;3138;52.550;13.148;2022-12-07T00:58:49;1.70;99.90
6210;DHT22;3138;52.550;13.148;2022-12-07T01:01:16;1.70;99.90
6210;DHT22;3138;52.550;13.148;2022-12-07T01:03:45;1.80;99.90
6210;DHT22;3138;52.550;13.148;2022-12-07T01:06:14;1.70;99.90
6210;DHT22;3138;52.550;13.148;2022-12-07T01:08:41;1.70;99.90
6210;DHT22;3138;52.550;13.148;2022-12-07T01:11:12;1.80;99.90
6210;DHT22;3138;52.550;13.148;2022-12-07T01:13:39;1.80;99.90
6210;DHT22;3138;52.550;13.148;2022-12-07T01:16:06;1.80;99.90
6210;DHT22;3138;52.550;13.148;2022-12-07T01:18:36;1.80;99.90
6210;DHT22;3138;52.550;13.148;2022-12-07T01:21:06;1.80;99.90
6210;DHT22;3138;52.550;13.148;2022-12-07T01:23:34;1.70;99.90
6210;DHT22;3138;52.550;13.148;2022-12-07T01:26:04;1.70;99.90
6210;DHT22;3138;52.550;13.148;2022-12-07T01:28:31;1.80;99.90
6210;DHT22;3138;52.550;13.148;2022-12-07T01:31:00;1.70;99.90
6210;DHT22;3138;52.550;13.148;2022-12-07T01:33:28;1.70;99.90
6210;DHT22;3138;52.550;13.148;2022-12-07T01:36:00;1.70;99.90
6210;DHT22;3138;52.550;13.148;2022-12-07T01:38:29;1.70;99.90
6210;DHT22;3138;52.550;13.148;2022-12-07T01:40:57;1.70;99.90
6210;DHT22;3138;52.550;13.148;2022-12-07T01:43:26;1.70;99.90
6210;DHT22;3138;52.550;13.148;2022-12-07T01:45:54;1.60;99.90
6210;DHT22;3138;52.550;13.148;2022-12-07T01:48:24;1.60;99.90
6210;DHT22;3138;52.550;13.148;2022-12-07T01:50:53;1.60;99.90
6210;DHT22;3138;52.550;13.148;2022-12-07T01:53:25;1.50;99.90
6210;DHT22;3138;52.550;13.148;2022-12-07T01:55:55;1.50;99.90
6210;DHT22;3138;52.550;13.148;2022-12-07T01:58:23;1.50;99.90
6210;DHT22;3138;52.550;13.148;2022-12-07T02:00:50;1.50;99.90
6210;DHT22;3138;52.550;13.148;2022-12-07T02:03:21;1.50;99.90
6210;DHT22;3138;52.550;13.148;2022-12-07T02:05:51;1.40;99.90
6210;DHT22;3138;52.550;13.148;2022-12-07T02:08:20;1.40;99.90
6210;DHT22;3138;52.550;13.148;2022-12-07T02:10:47;1.30;99.90
6210;DHT22;3138;52.550;13.148;2022-12-07T02:13:17;1.30;99.90
6210;DHT22;3138;52.550;13.148;2022-12-07T02:15:55;1.30;99.90
6210;DHT22;3138;52.550;13.148;2022-12-07T02:18:34;1.20;99.90
6210;DHT22;3138;52.550;13.148;2022-12-07T02:21:08;1.30;99.90
6210;DHT22;3138;52.550;13.148;2022-12-07T02:23:44;1.30;99.90
6210;DHT22;3138;52.550;13.148;2022-12-07T02:26:51;1.30;99.90
6210;DHT22;3138;52.550;13.148;2022-12-07T02:29:25;1.30;99.90
6210;DHT22;3138;52.550;13.148;2022-12-07T02:32:00;1.30;99.90
6210;DHT22;3138;52.550;13.148;2022-12-07T02:34:37;1.30;99.90
6210;DHT22;3138;52.550;13.148;2022-12-07T02:37:23;1.30;99.90
6210;DHT22;3138;52.550;13.148;2022-12-07T02:39:55;1.30;99.90
6210;DHT22;3138;52.550;13.148;2022-12-07T02:42:29;1.30;99.90
6210;DHT22;3138;52.550;13.148;2022-12-07T02:44:59;1.30;99.90
6210;DHT22;3138;52.550;13.148;2022-12-07T02:47:27;1.40;99.90
6210;DHT22;3138;52.550;13.148;2022-12-07T02:49:55;1.30;99.90
6210;DHT22;3138;52.550;13.148;2022-12-07T02:52:22;1.30;99.90
6210;DHT22;3138;52.550;13.148;2022-12-07T02:54:49;1.20;99.90
6210;DHT22;3138;52.550;13.148;2022-12-07T02:57:28;1.30;99.90
6210;DHT22;3138;52.550;13.148;2022-12-07T03:00:03;1.20;99.90
6210;DHT22;3138;52.550;13.148;2022-12-07T03:02:38;1.30;99.90
6210;DHT22;3138;52.550;13.148;2022-12-07T03:05:20;1.30;99.90
6210;DHT22;3138;52.550;13.148;2022-12-07T03:07:55;1.30;99.90
6210;DHT22;3138;52.550;13.148;2022-12-07T03:10:32;1.40;99.90
6210;DHT22;3138;52.550;13.148;2022-12-07T03:13:04;1.50;99.90
6210;DHT22;3138;52.550;13.148;2022-12-07T03:15:38;1.50;99.90
6210;DHT22;3138;52.550;13.148;2022-12-07T03:18:08;1.50;99.90
6210;DHT22;3138;52.550;13.148;2022-12-07T03:20:37;1.60;99.90
6210;DHT22;3138;52.550;13.148;2022-12-07T03:23:06;1.60;99.90
6210;DHT22;3138;52.550;13.148;2022-12-07T03:25:35;1.60;99.90
6210;DHT22;3138;52.550;13.148;2022-12-07T03:28:06;1.70;99.90
6210;DHT22;3138;52.550;13.148;2022-12-07T03:30:38;1.70;99.90
6210;DHT22;3138;52.550;13.148;2022-12-07T03:33:12;1.70;99.90
6210;DHT22;3138;52.550;13.148;2022-12-07T03:35:42;1.70;99.90
6210;DHT22;3138;52.550;13.148;2022-12-07T03:38:15;1.70;99.90
6210;DHT22;3138;52.550;13.148;2022-12-07T03:40:46;1.70;99.90
6210;DHT22;3138;52.550;13.148;2022-12-07T03:43:15;1.70;99.90
6210;DHT22;3138;52.550;13.148;2022-12-07T03:45:46;1.70;99.90
6210;DHT22;3138;52.550;13.148;2022-12-07T03:48:24;1.70;99.90
6210;DHT22;3138;52.550;13.148;2022-12-07T03:50:54;1.70;99.90
6210;DHT22;3138;52.550;13.148;2022-12-07T03:53:26;1.80;99.90
6210;DHT22;3138;52.550;13.148;2022-12-07T03:55:55;1.80;99.90
6210;DHT22;3138;52.550;13.148;2022-12-07T03:58:23;1.80;99.90
6210;DHT22;3138;52.550;13.148;2022-12-07T04:00:52;1.80;99.90
6210;DHT22;3138;52.550;13.148;2022-12-07T04:03:19;1.90;99.90
6210;DHT22;3138;52.550;13.148;2022-12-07T04:05:45;1.90;99.90
6210;DHT22;3138;52.550;13.148;2022-12-07T04:08:12;1.90;99.90
6210;DHT22;3138;52.550;13.148;2022-12-07T04:10:39;1.90;99.90
6210;DHT22;3138;52.550;13.148;2022-12-07T04:13:06;1.80;99.90
6210;DHT22;3138;52.550;13.148;2022-12-07T04:15:33;1.90;99.90
6210;DHT22;3138;52.550;13.148;2022-12-07T04:18:01;1.90;99.90
6210;DHT22;3138;52.550;13.148;2022-12-07T04:20:28;1.90;99.90
6210;DHT22;3138;52.550;13.148;2022-12-07T04:22:55;1.90;99.90
6210;DHT22;3138;52.550;13.148;2022-12-07T04:25:22;1.80;99.90
6210;DHT22;3138;52.550;13.148;2022-12-07T04:27:48;1.90;99.90
6210;DHT22;3138;52.550;13.148;2022-12-07T04:30:15;1.90;99.90
6210;DHT22;3138;52.550;13.148;2022-12-07T04:32:42;1.90;99.90
6210;DHT22;3138;52.550;13.148;2022-12-07T04:35:10;1.90;99.90
6210;DHT22;3138;52.550;13.148;2022-12-07T04:37:37;1.90;99.90
6210;DHT22;3138;52.550;13.148;2022-12-07T04:40:06;1.90;99.90
6210;DHT22;3138;52.550;13.148;2022-12-07T04:42:34;2.00;99.90
6210;DHT22;3138;52.550;13.148;2022-12-07T04:45:01;2.00;99.90
6210;DHT22;3138;52.550;13.148;2022-12-07T04:47:27;2.10;99.90
6210;DHT22;3138;52.550;13.148;2022-12-07T04:49:54;2.10;99.90
6210;DHT22;3138;52.550;13.148;2022-12-07T04:52:22;2.10;99.90
6210;DHT22;3138;52.550;13.148;2022-12-07T04:54:49;2.10;99.90
6210;DHT22;3138;52.550;13.148;2022-12-07T04:57:16;2.20;99.90
6210;DHT22;3138;52.550;13.148;2022-12-07T04:59:43;2.20;99.90
6210;DHT22;3138;52.550;13.148;2022-12-07T05:02:10;2.30;99.90
6210;DHT22;3138;52.550;13.148;2022-12-07T05:04:36;2.30;99.90
6210;DHT22;3138;52.550;13.148;2022-12-07T05:07:03;2.30;99.90
6210;DHT22;3138;52.550;13.148;2022-12-07T05:09:31;2.40;99.90
6210;DHT22;3138;52.550;13.148;2022-12-07T05:11:58;2.40;99.90
6210;DHT22;3138;52.550;13.148;2022-12-07T05:14:25;2.40;99.90
6210;DHT22;3138;52.550;13.148;2022-12-07T05:16:52;2.40;99.90
6210;DHT22;3138;52.550;13.148;2022-12-07T05:19:19;2.50;99.90
6210;DHT22;3138;52.550;13.148;2022-12-07T05:21:47;2.50;99.90
6210;DHT22;3138;52.550;13.148;2022-12-07T05:24:15;2.50;99.90
6210;DHT22;3138;52.550;13.148;2022-12-07T05:26:46;2.60;99.90
6210;DHT22;3138;52.550;13.148;2022-12-07T05:29:14;2.60;99.90
6210;DHT22;3138;52.550;13.148;2022-12-07T05:31:41;2.60;99.90
6210;DHT22;3138;52.550;13.148;2022-12-07T05:34:08;2.60;99.90
6210;DHT22;3138;52.550;13.148;2022-12-07T05:36:35;2.60;99.90
6210;DHT22;3138;52.550;13.148;2022-12-07T05:39:03;2.70;99.90
6210;DHT22;3138;52.550;13.148;2022-12-07T05:41:29;2.70;99.90
6210;DHT22;3138;52.550;13.148;2022-12-07T05:44:15;2.70;99.90
6210;DHT22;3138;52.550;13.148;2022-12-07T05:46:42;2.80;99.90
6210;DHT22;3138;52.550;13.148;2022-12-07T05:49:09;2.80;99.90
6210;DHT22;3138;52.550;13.148;2022-12-07T05:51:36;2.80;99.90
6210;DHT22;3138;52.550;13.148;2022-12-07T05:54:03;2.80;99.90
6210;DHT22;3138;52.550;13.148;2022-12-07T05:56:30;2.80;99.90
6210;DHT22;3138;52.550;13.148;2022-12-07T05:58:57;2.80;99.90
6210;DHT22;3138;52.550;13.148;2022-12-07T06:01:42;2.80;99.90
6210;DHT22;3138;52.550;13.148;2022-12-07T06:04:09;2.90;99.90
6210;DHT22;3138;52.550;13.148;2022-12-07T06:06:36;2.90;99.90
6210;DHT22;3138;52.550;13.148;2022-12-07T06:09:04;2.90;99.90
6210;DHT22;3138;52.550;13.148;2022-12-07T06:11:31;2.90;99.90
6210;DHT22;3138;52.550;13.148;2022-12-07T06:14:16;2.80;99.90
6210;DHT22;3138;52.550;13.148;2022-12-07T06:16:44;2.80;99.90
6210;DHT22;3138;52.550;13.148;2022-12-07T06:19:11;2.80;99.90
6210;DHT22;3138;52.550;13.148;2022-12-07T06:21:38;2.90;99.90
6210;DHT22;3138;52.550;13.148;2022-12-07T06:24:05;2.90;99.90
6210;DHT22;3138;52.550;13.148;2022-12-07T06:26:32;2.90;99.90
6210;DHT22;3138;52.550;13.148;2022-12-07T06:28:59;2.90;99.90
6210;DHT22;3138;52.550;13.148;2022-12-07T06:31:26;3.00;99.90
6210;DHT22;3138;52.550;13.148;2022-12-07T06:33:58;3.00;99.90
6210;DHT22;3138;52.550;13.148;2022-12-07T06:36:25;3.00;99.90
6210;DHT22;3138;52.550;13.148;2022-12-07T06:38:52;3.00;99.90
6210;DHT22;3138;52.550;13.148;2022-12-07T06:41:19;3.10;99.90
6210;DHT22;3138;52.550;13.148;2022-12-07T06:43:46;3.00;99.90
6210;DHT22;3138;52.550;13.148;2022-12-07T06:46:13;3.00;99.90
6210;DHT22;3138;52.550;13.148;2022-12-07T06:48:40;3.10;99.90
6210;DHT22;3138;52.550;13.148;2022-12-07T06:51:09;3.10;99.90
6210;DHT22;3138;52.550;13.148;2022-12-07T06:53:36;3.10;99.90
6210;DHT22;3138;52.550;13.148;2022-12-07T06:56:04;3.10;99.90
6210;DHT22;3138;52.550;13.148;2022-12-07T06:58:31;3.10;99.90
6210;DHT22;3138;52.550;13.148;2022-12-07T07:00:58;3.10;99.90
6210;DHT22;3138;52.550;13.148;2022-12-07T07:03:25;3.10;99.90
6210;DHT22;3138;52.550;13.148;2022-12-07T07:05:53;3.10;99.90
6210;DHT22;3138;52.550;13.148;2022-12-07T07:08:21;3.10;99.90
6210;DHT22;3138;52.550;13.148;2022-12-07T07:10:48;3.10;99.90
6210;DHT22;3138;52.550;13.148;2022-12-07T07:13:16;3.10;99.90
6210;DHT22;3138;52.550;13.148;2022-12-07T07:15:43;3.10;99.90
6210;DHT22;3138;52.550;13.148;2022-12-07T07:18:10;3.20;99.90
6210;DHT22;3138;52.550;13.148;2022-12-07T07:20:37;3.20;99.90
6210;DHT22;3138;52.550;13.148;2022-12-07T07:23:04;3.20;99.90
6210;DHT22;3138;52.550;13.148;2022-12-07T07:25:33;3.20;99.90
6210;DHT22;3138;52.550;13.148;2022-12-07T07:28:00;3.10;99.90
6210;DHT22;3138;52.550;13.148;2022-12-07T07:30:27;3.00;99.90
6210;DHT22;3138;52.550;13.148;2022-12-07T07:32:56;3.00;99.90
6210;DHT22;3138;52.550;13.148;2022-12-07T07:35:23;3.10;99.90
6210;DHT22;3138;52.550;13.148;2022-12-07T07:37:50;3.10;99.90
6210;DHT22;3138;52.550;13.148;2022-12-07T07:40:17;3.20;99.90
6210;DHT22;3138;52.550;13.148;2022-12-07T07:42:48;3.20;99.90
6210;DHT22;3138;52.550;13.148;2022-12-07T07:45:15;3.30;99.90
6210;DHT22;3138;52.550;13.148;2022-12-07T07:47:42;3.30;99.90
6210;DHT22;3138;52.550;13.148;2022-12-07T07:50:09;3.40;99.90
6210;DHT22;3138;52.550;13.148;2022-12-07T07:52:36;3.40;99.90
6210;DHT22;3138;52.550;13.148;2022-12-07T07:55:04;3.40;99.90
6210;DHT22;3138;52.550;13.148;2022-12-07T07:57:31;3.40;99.90
6210;DHT22;3138;52.550;13.148;2022-12-07T07:59:59;3.40;99.90
6210;DHT22;3138;52.550;13.148;2022-12-07T08:02:26;3.40;99.90
6210;DHT22;3138;52.550;13.148;2022-12-07T08:04:55;3.50;99.90
6210;DHT22;3138;52.550;13.148;2022-12-07T08:07:21;3.50;99.90
6210;DHT22;3138;52.550;13.148;2022-12-07T08:09:48;3.50;99.90
6210;DHT22;3138;52.550;13.148;2022-12-07T08:12:15;3.50;99.90
6210;DHT22;3138;52.550;13.148;2022-12-07T08:14:42;3.50;99.90
6210;DHT22;3138;52.550;13.148;2022-12-07T08:17:10;3.60;99.90
6210;DHT22;3138;52.550;13.148;2022-12-07T08:19:38;3.50;99.90
6210;DHT22;3138;52.550;13.148;2022-12-07T08:22:04;3.50;99.90
6210;DHT22;3138;52.550;13.148;2022-12-07T08:24:33;3.50;99.90
6210;DHT22;3138;52.550;13.148;2022-12-07T08:27:00;3.60;99.90
6210;DHT22;3138;52.550;13.148;2022-12-07T08:29:26;3.50;99.90
6210;DHT22;3138;52.550;13.148;2022-12-07T08:31:53;3.50;99.90
6210;DHT22;3138;52.550;13.148;2022-12-07T08:34:22;3.50;99.90
6210;DHT22;3138;52.550;13.148;2022-12-07T08:36:48;3.50;99.90
6210;DHT22;3138;52.550;13.148;2022-12-07T08:39:15;3.50;99.90
6210;DHT22;3138;52.550;13.148;2022-12-07T08:41:42;3.50;99.90
6210;DHT22;3138;52.550;13.148;2022-12-07T08:44:09;3.50;99.90
6210;DHT22;3138;52.550;13.148;2022-12-07T08:46:38;3.40;99.90
6210;DHT22;3138;52.550;13.148;2022-12-07T08:49:08;3.50;99.90
6210;DHT22;3138;52.550;13.148;2022-12-07T08:51:37;3.40;99.90
6210;DHT22;3138;52.550;13.148;2022-12-07T08:54:07;3.40;99.90
6210;DHT22;3138;52.550;13.148;2022-12-07T08:56:35;3.40;99.90
6210;DHT22;3138;52.550;13.148;2022-12-07T08:59:03;3.40;99.90
6210;DHT22;3138;52.550;13.148;2022-12-07T09:01:30;3.40;99.90
6210;DHT22;3138;52.550;13.148;2022-12-07T09:03:58;3.40;99.90
6210;DHT22;3138;52.550;13.148;2022-12-07T09:06:25;3.30;99.90
6210;DHT22;3138;52.550;13.148;2022-12-07T09:08:55;3.30;99.90
6210;DHT22;3138;52.550;13.148;2022-12-07T09:11:24;3.30;99.90
6210;DHT22;3138;52.550;13.148;2022-12-07T09:13:53;3.30;99.90
6210;DHT22;3138;52.550;13.148;2022-12-07T09:16:24;3.30;99.90
6210;DHT22;3138;52.550;13.148;2022-12-07T09:18:51;3.30;99.90
6210;DHT22;3138;52.550;13.148;2022-12-07T09:21:17;3.30;99.90
6210;DHT22;3138;52.550;13.148;2022-12-07T09:23:44;3.30;99.90
6210;DHT22;3138;52.550;13.148;2022-12-07T09:26:12;3.30;99.90
6210;DHT22;3138;52.550;13.148;2022-12-07T09:28:39;3.20;99.90
6210;DHT22;3138;52.550;13.148;2022-12-07T09:31:06;3.20;99.90
6210;DHT22;3138;52.550;13.148;2022-12-07T09:33:33;3.20;99.90
6210;DHT22;3138;52.550;13.148;2022-12-07T09:36:00;3.20;99.90
6210;DHT22;3138;52.550;13.148;2022-12-07T09:38:28;3.20;99.90
6210;DHT22;3138;52.550;13.148;2022-12-07T09:40:55;3.20;99.90
6210;DHT22;3138;52.550;13.148;2022-12-07T09:43:25;3.20;99.90
6210;DHT22;3138;52.550;13.148;2022-12-07T09:45:54;3.20;99.90
6210;DHT22;3138;52.550;13.148;2022-12-07T09:48:24;3.10;99.90
6210;DHT22;3138;52.550;13.148;2022-12-07T09:50:54;3.10;99.90
6210;DHT22;3138;52.550;13.148;2022-12-07T09:53:25;3.20;99.90
6210;DHT22;3138;52.550;13.148;2022-12-07T09:55:54;3.20;99.90
6210;DHT22;3138;52.550;13.148;2022-12-07T09:58:24;3.20;99.90
6210;DHT22;3138;52.550;13.148;2022-12-07T10:00:54;3.20;99.90
6210;DHT22;3138;52.550;13.148;2022-12-07T10:03:22;3.20;99.90
6210;DHT22;3138;52.550;13.148;2022-12-07T10:05:50;3.20;99.90
6210;DHT22;3138;52.550;13.148;2022-12-07T10:08:18;3.20;99.90
6210;DHT22;3138;52.550;13.148;2022-12-07T10:10:50;3.20;99.90
6210;DHT22;3138;52.550;13.148;2022-12-07T10:13:19;3.20;99.90
6210;DHT22;3138;52.550;13.148;2022-12-07T10:15:51;3.20;99.90
6210;DHT22;3138;52.550;13.148;2022-12-07T10:18:21;3.20;99.90
6210;DHT22;3138;52.550;13.148;2022-12-07T10:21:04;3.20;99.90
6210;DHT22;3138;52.550;13.148;2022-12-07T10:23:33;3.20;99.90
6210;DHT22;3138;52.550;13.148;2022-12-07T10:26:19;3.10;99.90
6210;DHT22;3138;52.550;13.148;2022-12-07T10:28:47;3.20;99.90
6210;DHT22;3138;52.550;13.148;2022-12-07T10:31:18;3.20;99.90
6210;DHT22;3138;52.550;13.148;2022-12-07T10:33:51;3.30;99.90
6210;DHT22;3138;52.550;13.148;2022-12-07T10:36:23;3.30;99.90
6210;DHT22;3138;52.550;13.148;2022-12-07T10:38:52;3.30;99.90
6210;DHT22;3138;52.550;13.148;2022-12-07T10:41:19;3.40;99.90
6210;DHT22;3138;52.550;13.148;2022-12-07T10:43:50;3.40;99.90
6210;DHT22;3138;52.550;13.148;2022-12-07T10:46:44;3.40;99.90
6210;DHT22;3138;52.550;13.148;2022-12-07T10:49:36;3.40;99.90
6210;DHT22;3138;52.550;13.148;2022-12-07T10:52:10;3.40;99.90
6210;DHT22;3138;52.550;13.148;2022-12-07T10:54:47;3.40;99.90
6210;DHT22;3138;52.550;13.148;2022-12-07T10:57:29;3.50;99.90
6210;DHT22;3138;52.550;13.148;2022-12-07T11:00:04;3.60;99.90
6210;DHT22;3138;52.550;13.148;2022-12-07T11:02:55;3.60;99.90
6210;DHT22;3138;52.550;13.148;2022-12-07T11:05:29;3.60;99.90
6210;DHT22;3138;52.550;13.148;2022-12-07T11:08:04;3.60;99.90
6210;DHT22;3138;52.550;13.148;2022-12-07T11:10:40;3.60;99.90
6210;DHT22;3138;52.550;13.148;2022-12-07T11:13:18;3.60;99.90
6210;DHT22;3138;52.550;13.148;2022-12-07T11:16:07;3.60;99.90
6210;DHT22;3138;52.550;13.148;2022-12-07T11:18:46;3.70;99.90
6210;DHT22;3138;52.550;13.148;2022-12-07T11:21:20;3.70;99.90
6210;DHT22;3138;52.550;13.148;2022-12-07T11:23:56;3.70;99.90
6210;DHT22;3138;52.550;13.148;2022-12-07T11:26:39;3.80;99.90
6210;DHT22;3138;52.550;13.148;2022-12-07T11:29:34;3.80;99.90
6210;DHT22;3138;52.550;13.148;2022-12-07T11:32:09;3.80;99.90
6210;DHT22;3138;52.550;13.148;2022-12-07T11:34:44;3.80;99.90
6210;DHT22;3138;52.550;13.148;2022-12-07T11:37:18;3.80;99.90
6210;DHT22;3138;52.550;13.148;2022-12-07T11:39:50;3.90;99.90
6210;DHT22;3138;52.550;13.148;2022-12-07T11:42:22;3.90;99.90
6210;DHT22;3138;52.550;13.148;2022-12-07T11:44:53;4.00;99.90
6210;DHT22;3138;52.550;13.148;2022-12-07T11:47:28;4.00;99.90
6210;DHT22;3138;52.550;13.148;2022-12-07T11:50:22;3.90;99.90
6210;DHT22;3138;52.550;13.148;2022-12-07T11:52:54;4.00;99.90
6210;DHT22;3138;52.550;13.148;2022-12-07T11:55:29;4.00;99.90
6210;DHT22;3138;52.550;13.148;2022-12-07T11:58:03;4.00;99.90
6210;DHT22;3138;52.550;13.148;2022-12-07T12:00:31;4.00;99.90
6210;DHT22;3138;52.550;13.148;2022-12-07T12:03:03;4.10;99.90
6210;DHT22;3138;52.550;13.148;2022-12-07T12:05:32;4.20;99.90
6210;DHT22;3138;52.550;13.148;2022-12-07T12:08:05;4.20;99.90
6210;DHT22;3138;52.550;13.148;2022-12-07T12:10:46;4.20;99.90
6210;DHT22;3138;52.550;13.148;2022-12-07T12:13:47;4.10;99.90
6210;DHT22;3138;52.550;13.148;2022-12-07T12:16:39;4.10;99.90
6210;DHT22;3138;52.550;13.148;2022-12-07T12:19:22;4.20;99.90
6210;DHT22;3138;52.550;13.148;2022-12-07T12:21:56;4.20;99.90
6210;DHT22;3138;52.550;13.148;2022-12-07T12:24:26;4.20;99.90
6210;DHT22;3138;52.550;13.148;2022-12-07T12:26:59;4.20;99.90
6210;DHT22;3138;52.550;13.148;2022-12-07T12:29:32;4.20;99.90
6210;DHT22;3138;52.550;13.148;2022-12-07T12:32:11;4.20;99.90
6210;DHT22;3138;52.550;13.148;2022-12-07T12:34:41;4.10;99.90
6210;DHT22;3138;52.550;13.148;2022-12-07T12:37:40;4.10;99.90
6210;DHT22;3138;52.550;13.148;2022-12-07T12:40:43;4.10;99.90
6210;DHT22;3138;52.550;13.148;2022-12-07T12:46:46;4.10;99.90
6210;DHT22;3138;52.550;13.148;2022-12-07T12:49:32;4.10;99.90
6210;DHT22;3138;52.550;13.148;2022-12-07T12:52:00;4.10;99.90
6210;DHT22;3138;52.550;13.148;2022-12-07T12:54:31;4.20;99.90
6210;DHT22;3138;52.550;13.148;2022-12-07T12:57:01;4.20;99.90
6210;DHT22;3138;52.550;13.148;2022-12-07T12:59:33;4.30;99.90
6210;DHT22;3138;52.550;13.148;2022-12-07T13:02:16;4.30;99.90
6210;DHT22;3138;52.550;13.148;2022-12-07T13:04:52;4.30;99.90
6210;DHT22;3138;52.550;13.148;2022-12-07T13:10:41;4.20;99.90
6210;DHT22;3138;52.550;13.148;2022-12-07T13:13:29;4.30;99.90
6210;DHT22;3138;52.550;13.148;2022-12-07T13:18:56;4.30;99.90
6210;DHT22;3138;52.550;13.148;2022-12-07T13:21:42;4.30;99.90
6210;DHT22;3138;52.550;13.148;2022-12-07T13:24:12;4.20;99.90
6210;DHT22;3138;52.550;13.148;2022-12-07T13:26:42;4.20;99.90
6210;DHT22;3138;52.550;13.148;2022-12-07T13:29:12;4.10;99.90
6210;DHT22;3138;52.550;13.148;2022-12-07T13:31:40;4.20;99.90
6210;DHT22;3138;52.550;13.148;2022-12-07T13:34:30;4.10;99.90
6210;DHT22;3138;52.550;13.148;2022-12-07T13:36:57;4.00;99.90
6210;DHT22;3138;52.550;13.148;2022-12-07T13:39:26;4.00;99.90
6210;DHT22;3138;52.550;13.148;2022-12-07T13:41:56;4.00;99.90
6210;DHT22;3138;52.550;13.148;2022-12-07T13:44:24;4.00;99.90
6210;DHT22;3138;52.550;13.148;2022-12-07T13:46:59;4.00;99.90
6210;DHT22;3138;52.550;13.148;2022-12-07T13:49:28;4.00;99.90
6210;DHT22;3138;52.550;13.148;2022-12-07T13:52:13;4.10;99.90
6210;DHT22;3138;52.550;13.148;2022-12-07T13:54:44;4.10;99.90
6210;DHT22;3138;52.550;13.148;2022-12-07T13:57:13;4.00;99.90
6210;DHT22;3138;52.550;13.148;2022-12-07T13:59:40;4.00;99.90
6210;DHT22;3138;52.550;13.148;2022-12-07T14:04:41;4.10;99.90
6210;DHT22;3138;52.550;13.148;2022-12-07T14:07:23;4.10;99.90
6210;DHT22;3138;52.550;13.148;2022-12-07T14:09:55;4.10;99.90
6210;DHT22;3138;52.550;13.148;2022-12-07T14:12:24;4.10;99.90
6210;DHT22;3138;52.550;13.148;2022-12-07T14:14:52;4.10;99.90
6210;DHT22;3138;52.550;13.148;2022-12-07T14:17:21;4.10;99.90
6210;DHT22;3138;52.550;13.148;2022-12-07T14:19:51;4.10;99.90
6210;DHT22;3138;52.550;13.148;2022-12-07T14:22:24;4.10;99.90
6210;DHT22;3138;52.550;13.148;2022-12-07T14:24:58;4.00;99.90
6210;DHT22;3138;52.550;13.148;2022-12-07T14:27:31;3.90;99.90
6210;DHT22;3138;52.550;13.148;2022-12-07T14:30:00;3.90;99.90
6210;DHT22;3138;52.550;13.148;2022-12-07T14:32:28;3.80;99.90
6210;DHT22;3138;52.550;13.148;2022-12-07T14:34:58;3.70;99.90
6210;DHT22;3138;52.550;13.148;2022-12-07T14:37:26;3.70;99.90
6210;DHT22;3138;52.550;13.148;2022-12-07T14:39:53;3.60;99.90
6210;DHT22;3138;52.550;13.148;2022-12-07T14:42:22;3.60;99.90
6210;DHT22;3138;52.550;13.148;2022-12-07T14:44:54;3.50;99.90
6210;DHT22;3138;52.550;13.148;2022-12-07T14:47:20;3.40;99.90
6210;DHT22;3138;52.550;13.148;2022-12-07T14:49:47;3.40;99.90
6210;DHT22;3138;52.550;13.148;2022-12-07T14:52:17;3.40;99.90
6210;DHT22;3138;52.550;13.148;2022-12-07T14:54:45;3.40;99.90
6210;DHT22;3138;52.550;13.148;2022-12-07T14:57:11;3.40;99.90
6210;DHT22;3138;52.550;13.148;2022-12-07T14:59:38;3.40;99.90
6210;DHT22;3138;52.550;13.148;2022-12-07T15:02:08;3.40;99.90
6210;DHT22;3138;52.550;13.148;2022-12-07T15:04:36;3.30;99.90
6210;DHT22;3138;52.550;13.148;2022-12-07T15:07:04;3.40;99.90
6210;DHT22;3138;52.550;13.148;2022-12-07T15:09:31;3.30;99.90
6210;DHT22;3138;52.550;13.148;2022-12-07T15:11:58;3.10;99.90
6210;DHT22;3138;52.550;13.148;2022-12-07T15:14:25;3.10;99.90
6210;DHT22;3138;52.550;13.148;2022-12-07T15:16:52;3.10;99.90
6210;DHT22;3138;52.550;13.148;2022-12-07T15:19:22;3.10;99.90
6210;DHT22;3138;52.550;13.148;2022-12-07T15:21:51;3.20;99.90
6210;DHT22;3138;52.550;13.148;2022-12-07T15:24:19;3.30;99.90
6210;DHT22;3138;52.550;13.148;2022-12-07T15:26:46;3.30;99.90
6210;DHT22;3138;52.550;13.148;2022-12-07T15:29:13;3.30;99.90
6210;DHT22;3138;52.550;13.148;2022-12-07T15:31:42;3.20;99.90
6210;DHT22;3138;52.550;13.148;2022-12-07T15:34:09;3.20;99.90
6210;DHT22;3138;52.550;13.148;2022-12-07T15:36:37;3.10;99.90
6210;DHT22;3138;52.550;13.148;2022-12-07T15:39:04;3.10;99.90
6210;DHT22;3138;52.550;13.148;2022-12-07T15:41:31;3.10;99.90
6210;DHT22;3138;52.550;13.148;2022-12-07T15:43:58;3.10;99.90
6210;DHT22;3138;52.550;13.148;2022-12-07T15:46:42;3.00;99.90
6210;DHT22;3138;52.550;13.148;2022-12-07T15:49:12;3.00;99.90
6210;DHT22;3138;52.550;13.148;2022-12-07T15:51:42;3.00;99.90
6210;DHT22;3138;52.550;13.148;2022-12-07T15:54:12;2.90;99.90
6210;DHT22;3138;52.550;13.148;2022-12-07T15:56:41;2.80;99.90
6210;DHT22;3138;52.550;13.148;2022-12-07T15:59:08;2.80;99.90
6210;DHT22;3138;52.550;13.148;2022-12-07T16:01:35;2.80;99.90
6210;DHT22;3138;52.550;13.148;2022-12-07T16:04:02;2.70;99.90
6210;DHT22;3138;52.550;13.148;2022-12-07T16:06:29;2.70;99.90
6210;DHT22;3138;52.550;13.148;2022-12-07T16:08:57;2.60;99.90
6210;DHT22;3138;52.550;13.148;2022-12-07T16:11:24;2.70;99.90
6210;DHT22;3138;52.550;13.148;2022-12-07T16:13:51;2.70;99.90
6210;DHT22;3138;52.550;13.148;2022-12-07T16:16:19;2.70;99.90
6210;DHT22;3138;52.550;13.148;2022-12-07T16:18:48;2.70;99.90
6210;DHT22;3138;52.550;13.148;2022-12-07T16:21:16;2.60;99.90
6210;DHT22;3138;52.550;13.148;2022-12-07T16:23:43;2.70;99.90
6210;DHT22;3138;52.550;13.148;2022-12-07T16:26:13;2.60;99.90
6210;DHT22;3138;52.550;13.148;2022-12-07T16:28:40;2.60;99.90
6210;DHT22;3138;52.550;13.148;2022-12-07T16:31:09;2.60;99.90
6210;DHT22;3138;52.550;13.148;2022-12-07T16:33:37;2.60;99.90
6210;DHT22;3138;52.550;13.148;2022-12-07T16:36:07;2.60;99.90